sensor_id;sensor_type;location;lat;lon;timestamp;P1;durP1;ratioP1;P2;durP2;ratioP2
21677;SDS011;11000;50.360;7.582;2022-08-21T00:01:40;5.63;;;2.77;;
21677;SDS011;11000;50.360;7.582;2022-08-21T00:04:05;7.80;;;2.87;;
21677;SDS011;11000;50.360;7.582;2022-08-21T00:06:26;6.57;;;2.97;;
21677;SDS011;11000;50.360;7.582;2022-08-21T00:08:46;4.93;;;2.90;;
21677;SDS011;11000;50.360;7.582;2022-08-21T00:11:07;4.97;;;3.00;;
21677;SDS011;11000;50.360;7.582;2022-08-21T00:13:28;7.53;;;2.90;;
21677;SDS011;11000;50.360;7.582;2022-08-21T00:15:49;4.50;;;2.57;;
21677;SDS011;11000;50.360;7.582;2022-08-21T00:18:10;7.07;;;2.53;;
21677;SDS011;11000;50.360;7.582;2022-08-21T00:20:31;8.00;;;3.20;;
21677;SDS011;11000;50.360;7.582;2022-08-21T00:22:52;8.43;;;3.20;;
21677;SDS011;11000;50.360;7.582;2022-08-21T00:25:13;7.27;;;3.00;;
21677;SDS011;11000;50.360;7.582;2022-08-21T00:27:34;7.60;;;2.93;;
21677;SDS011;11000;50.360;7.582;2022-08-21T00:29:54;6.07;;;2.60;;
21677;SDS011;11000;50.360;7.582;2022-08-21T00:32:23;5.50;;;2.97;;
21677;SDS011;11000;50.360;7.582;2022-08-21T00:34:45;6.10;;;2.83;;
21677;SDS011;11000;50.360;7.582;2022-08-21T00:37:05;7.83;;;2.90;;
21677;SDS011;11000;50.360;7.582;2022-08-21T00:39:27;4.50;;;2.33;;
21677;SDS011;11000;50.360;7.582;2022-08-21T00:41:48;6.93;;;3.20;;
21677;SDS011;11000;50.360;7.582;2022-08-21T00:44:10;8.07;;;3.07;;
21677;SDS011;11000;50.360;7.582;2022-08-21T00:46:33;6.97;;;3.23;;
21677;SDS011;11000;50.360;7.582;2022-08-21T00:48:55;8.03;;;3.33;;
21677;SDS011;11000;50.360;7.582;2022-08-21T00:51:20;7.17;;;3.20;;
21677;SDS011;11000;50.360;7.582;2022-08-21T00:53:45;6.30;;;3.17;;
21677;SDS011;11000;50.360;7.582;2022-08-21T00:56:06;9.10;;;3.00;;
21677;SDS011;11000;50.360;7.582;2022-08-21T00:58:28;6.33;;;3.20;;
21677;SDS011;11000;50.360;7.582;2022-08-21T01:00:51;7.73;;;3.10;;
21677;SDS011;11000;50.360;7.582;2022-08-21T01:03:14;10.90;;;3.20;;
21677;SDS011;11000;50.360;7.582;2022-08-21T01:05:38;9.87;;;3.40;;
21677;SDS011;11000;50.360;7.582;2022-08-21T01:08:00;5.43;;;2.97;;
21677;SDS011;11000;50.360;7.582;2022-08-21T01:10:20;5.10;;;3.00;;
21677;SDS011;11000;50.360;7.582;2022-08-21T01:12:41;6.93;;;3.20;;
21677;SDS011;11000;50.360;7.582;2022-08-21T01:15:02;5.40;;;3.00;;
21677;SDS011;11000;50.360;7.582;2022-08-21T01:17:24;10.47;;;3.03;;
21677;SDS011;11000;50.360;7.582;2022-08-21T01:19:46;6.23;;;3.13;;
21677;SDS011;11000;50.360;7.582;2022-08-21T01:22:06;8.20;;;3.00;;
21677;SDS011;11000;50.360;7.582;2022-08-21T01:24:27;7.03;;;3.40;;
21677;SDS011;11000;50.360;7.582;2022-08-21T01:26:48;5.90;;;3.47;;
21677;SDS011;11000;50.360;7.582;2022-08-21T01:31:37;6.07;;;3.20;;
21677;SDS011;11000;50.360;7.582;2022-08-21T01:33:58;8.90;;;3.37;;
21677;SDS011;11000;50.360;7.582;2022-08-21T01:36:19;6.07;;;3.20;;
21677;SDS011;11000;50.360;7.582;2022-08-21T01:38:41;6.67;;;3.37;;
21677;SDS011;11000;50.360;7.582;2022-08-21T01:41:01;7.47;;;3.77;;
21677;SDS011;11000;50.360;7.582;2022-08-21T01:43:22;7.53;;;3.13;;
21677;SDS011;11000;50.360;7.582;2022-08-21T01:45:42;8.73;;;3.40;;
21677;SDS011;11000;50.360;7.582;2022-08-21T01:48:03;9.10;;;2.67;;
21677;SDS011;11000;50.360;7.582;2022-08-21T01:50:24;6.27;;;3.17;;
21677;SDS011;11000;50.360;7.582;2022-08-21T01:52:44;6.47;;;3.10;;
21677;SDS011;11000;50.360;7.582;2022-08-21T01:55:05;5.60;;;2.80;;
21677;SDS011;11000;50.360;7.582;2022-08-21T01:57:27;8.60;;;2.90;;
21677;SDS011;11000;50.360;7.582;2022-08-21T01:59:48;6.60;;;3.27;;
21677;SDS011;11000;50.360;7.582;2022-08-21T02:02:08;9.03;;;2.93;;
21677;SDS011;11000;50.360;7.582;2022-08-21T02:04:29;8.30;;;3.63;;
21677;SDS011;11000;50.360;7.582;2022-08-21T02:06:50;6.63;;;3.57;;
21677;SDS011;11000;50.360;7.582;2022-08-21T02:09:11;7.30;;;3.20;;
21677;SDS011;11000;50.360;7.582;2022-08-21T02:11:32;4.63;;;2.90;;
21677;SDS011;11000;50.360;7.582;2022-08-21T02:13:53;5.70;;;3.20;;
21677;SDS011;11000;50.360;7.582;2022-08-21T02:16:13;7.20;;;3.40;;
21677;SDS011;11000;50.360;7.582;2022-08-21T02:18:35;4.67;;;3.10;;
21677;SDS011;11000;50.360;7.582;2022-08-21T02:20:56;4.37;;;2.80;;
21677;SDS011;11000;50.360;7.582;2022-08-21T02:23:17;5.87;;;2.80;;
21677;SDS011;11000;50.360;7.582;2022-08-21T02:25:37;7.97;;;4.00;;
21677;SDS011;11000;50.360;7.582;2022-08-21T02:27:59;10.97;;;3.37;;
21677;SDS011;11000;50.360;7.582;2022-08-21T02:30:31;9.87;;;3.07;;
21677;SDS011;11000;50.360;7.582;2022-08-21T02:32:54;5.70;;;3.23;;
21677;SDS011;11000;50.360;7.582;2022-08-21T02:35:16;6.57;;;3.07;;
21677;SDS011;11000;50.360;7.582;2022-08-21T02:40:31;4.20;;;2.93;;
21677;SDS011;11000;50.360;7.582;2022-08-21T02:42:54;9.00;;;3.63;;
21677;SDS011;11000;50.360;7.582;2022-08-21T02:45:15;7.63;;;4.17;;
21677;SDS011;11000;50.360;7.582;2022-08-21T02:47:37;8.23;;;3.17;;
21677;SDS011;11000;50.360;7.582;2022-08-21T02:49:58;6.17;;;3.33;;
21677;SDS011;11000;50.360;7.582;2022-08-21T02:52:18;5.23;;;3.40;;
21677;SDS011;11000;50.360;7.582;2022-08-21T02:54:39;6.83;;;3.20;;
21677;SDS011;11000;50.360;7.582;2022-08-21T02:56:59;7.33;;;3.50;;
21677;SDS011;11000;50.360;7.582;2022-08-21T02:59:20;6.20;;;3.33;;
21677;SDS011;11000;50.360;7.582;2022-08-21T03:01:40;9.23;;;3.50;;
21677;SDS011;11000;50.360;7.582;2022-08-21T03:04:01;8.97;;;3.80;;
21677;SDS011;11000;50.360;7.582;2022-08-21T03:06:22;6.50;;;3.70;;
21677;SDS011;11000;50.360;7.582;2022-08-21T03:08:42;11.80;;;3.27;;
21677;SDS011;11000;50.360;7.582;2022-08-21T03:11:05;6.00;;;3.30;;
21677;SDS011;11000;50.360;7.582;2022-08-21T03:13:26;8.23;;;3.47;;
21677;SDS011;11000;50.360;7.582;2022-08-21T03:15:48;4.83;;;3.23;;
21677;SDS011;11000;50.360;7.582;2022-08-21T03:18:09;8.00;;;3.70;;
21677;SDS011;11000;50.360;7.582;2022-08-21T03:20:31;9.33;;;4.13;;
21677;SDS011;11000;50.360;7.582;2022-08-21T03:22:52;9.73;;;3.47;;
21677;SDS011;11000;50.360;7.582;2022-08-21T03:25:14;9.00;;;3.73;;
21677;SDS011;11000;50.360;7.582;2022-08-21T03:27:34;6.17;;;3.80;;
21677;SDS011;11000;50.360;7.582;2022-08-21T03:29:55;9.10;;;3.37;;
21677;SDS011;11000;50.360;7.582;2022-08-21T03:32:16;6.37;;;3.30;;
21677;SDS011;11000;50.360;7.582;2022-08-21T03:34:37;7.50;;;3.90;;
21677;SDS011;11000;50.360;7.582;2022-08-21T03:36:58;7.87;;;3.57;;
21677;SDS011;11000;50.360;7.582;2022-08-21T03:39:18;9.03;;;3.80;;
21677;SDS011;11000;50.360;7.582;2022-08-21T03:41:39;7.20;;;3.40;;
21677;SDS011;11000;50.360;7.582;2022-08-21T03:43:59;6.07;;;3.47;;
21677;SDS011;11000;50.360;7.582;2022-08-21T03:46:20;10.83;;;3.70;;
21677;SDS011;11000;50.360;7.582;2022-08-21T03:48:40;5.13;;;2.83;;
21677;SDS011;11000;50.360;7.582;2022-08-21T03:51:01;10.87;;;3.60;;
21677;SDS011;11000;50.360;7.582;2022-08-21T03:53:22;4.70;;;3.40;;
21677;SDS011;11000;50.360;7.582;2022-08-21T03:55:44;6.93;;;3.50;;
21677;SDS011;11000;50.360;7.582;2022-08-21T03:58:06;7.53;;;3.80;;
21677;SDS011;11000;50.360;7.582;2022-08-21T04:00:27;5.50;;;3.60;;
21677;SDS011;11000;50.360;7.582;2022-08-21T04:02:48;6.33;;;3.37;;
21677;SDS011;11000;50.360;7.582;2022-08-21T04:05:08;7.80;;;3.40;;
21677;SDS011;11000;50.360;7.582;2022-08-21T04:07:30;6.57;;;3.40;;
21677;SDS011;11000;50.360;7.582;2022-08-21T04:09:51;8.23;;;3.40;;
21677;SDS011;11000;50.360;7.582;2022-08-21T04:12:11;7.00;;;3.70;;
21677;SDS011;11000;50.360;7.582;2022-08-21T04:14:32;7.80;;;3.97;;
21677;SDS011;11000;50.360;7.582;2022-08-21T04:16:52;5.33;;;3.23;;
21677;SDS011;11000;50.360;7.582;2022-08-21T04:19:13;5.87;;;3.30;;
21677;SDS011;11000;50.360;7.582;2022-08-21T04:21:35;6.57;;;3.67;;
21677;SDS011;11000;50.360;7.582;2022-08-21T04:23:57;4.73;;;3.47;;
21677;SDS011;11000;50.360;7.582;2022-08-21T04:26:19;10.20;;;3.80;;
21677;SDS011;11000;50.360;7.582;2022-08-21T04:28:39;7.83;;;3.63;;
21677;SDS011;11000;50.360;7.582;2022-08-21T04:31:00;6.27;;;3.17;;
21677;SDS011;11000;50.360;7.582;2022-08-21T04:33:21;7.43;;;4.23;;
21677;SDS011;11000;50.360;7.582;2022-08-21T04:35:42;7.83;;;3.33;;
21677;SDS011;11000;50.360;7.582;2022-08-21T04:38:02;5.93;;;3.40;;
21677;SDS011;11000;50.360;7.582;2022-08-21T04:40:24;10.67;;;3.70;;
21677;SDS011;11000;50.360;7.582;2022-08-21T04:42:50;7.97;;;3.70;;
21677;SDS011;11000;50.360;7.582;2022-08-21T04:45:21;7.17;;;3.83;;
21677;SDS011;11000;50.360;7.582;2022-08-21T04:47:50;8.97;;;3.77;;
21677;SDS011;11000;50.360;7.582;2022-08-21T04:50:12;7.03;;;3.60;;
21677;SDS011;11000;50.360;7.582;2022-08-21T04:52:32;5.17;;;3.43;;
21677;SDS011;11000;50.360;7.582;2022-08-21T04:54:53;8.17;;;3.47;;
21677;SDS011;11000;50.360;7.582;2022-08-21T04:57:15;6.80;;;3.57;;
21677;SDS011;11000;50.360;7.582;2022-08-21T04:59:39;6.20;;;3.50;;
21677;SDS011;11000;50.360;7.582;2022-08-21T05:02:03;7.97;;;4.00;;
21677;SDS011;11000;50.360;7.582;2022-08-21T05:04:26;9.43;;;4.20;;
21677;SDS011;11000;50.360;7.582;2022-08-21T05:06:50;6.93;;;3.60;;
21677;SDS011;11000;50.360;7.582;2022-08-21T05:09:13;8.30;;;3.50;;
21677;SDS011;11000;50.360;7.582;2022-08-21T05:11:35;6.83;;;3.73;;
21677;SDS011;11000;50.360;7.582;2022-08-21T05:13:57;8.27;;;3.40;;
21677;SDS011;11000;50.360;7.582;2022-08-21T05:16:18;8.60;;;3.60;;
21677;SDS011;11000;50.360;7.582;2022-08-21T05:18:38;6.30;;;3.57;;
21677;SDS011;11000;50.360;7.582;2022-08-21T05:20:59;8.00;;;4.00;;
21677;SDS011;11000;50.360;7.582;2022-08-21T05:23:20;8.17;;;3.53;;
21677;SDS011;11000;50.360;7.582;2022-08-21T05:25:40;9.47;;;4.70;;
21677;SDS011;11000;50.360;7.582;2022-08-21T05:28:02;6.87;;;3.50;;
21677;SDS011;11000;50.360;7.582;2022-08-21T05:30:23;5.63;;;3.10;;
21677;SDS011;11000;50.360;7.582;2022-08-21T05:32:44;6.87;;;3.50;;
21677;SDS011;11000;50.360;7.582;2022-08-21T05:35:05;5.67;;;3.60;;
21677;SDS011;11000;50.360;7.582;2022-08-21T05:37:26;8.53;;;3.80;;
21677;SDS011;11000;50.360;7.582;2022-08-21T05:39:47;4.90;;;3.50;;
21677;SDS011;11000;50.360;7.582;2022-08-21T05:42:07;6.77;;;3.30;;
21677;SDS011;11000;50.360;7.582;2022-08-21T05:44:28;8.20;;;3.53;;
21677;SDS011;11000;50.360;7.582;2022-08-21T05:46:48;7.23;;;3.63;;
21677;SDS011;11000;50.360;7.582;2022-08-21T05:49:09;5.63;;;3.40;;
21677;SDS011;11000;50.360;7.582;2022-08-21T05:51:31;9.03;;;3.97;;
21677;SDS011;11000;50.360;7.582;2022-08-21T05:53:51;7.10;;;3.50;;
21677;SDS011;11000;50.360;7.582;2022-08-21T05:56:12;8.37;;;3.70;;
21677;SDS011;11000;50.360;7.582;2022-08-21T05:58:33;7.97;;;3.63;;
21677;SDS011;11000;50.360;7.582;2022-08-21T06:00:54;4.40;;;3.50;;
21677;SDS011;11000;50.360;7.582;2022-08-21T06:03:34;5.50;;;3.10;;
21677;SDS011;11000;50.360;7.582;2022-08-21T06:05:57;6.77;;;3.63;;
21677;SDS011;11000;50.360;7.582;2022-08-21T06:08:18;8.93;;;3.83;;
21677;SDS011;11000;50.360;7.582;2022-08-21T06:10:40;7.30;;;3.63;;
21677;SDS011;11000;50.360;7.582;2022-08-21T06:13:00;8.93;;;3.67;;
21677;SDS011;11000;50.360;7.582;2022-08-21T06:15:21;5.03;;;3.50;;
21677;SDS011;11000;50.360;7.582;2022-08-21T06:17:42;5.60;;;3.40;;
21677;SDS011;11000;50.360;7.582;2022-08-21T06:20:02;6.37;;;3.47;;
21677;SDS011;11000;50.360;7.582;2022-08-21T06:22:24;5.33;;;3.27;;
21677;SDS011;11000;50.360;7.582;2022-08-21T06:24:45;8.60;;;4.17;;
21677;SDS011;11000;50.360;7.582;2022-08-21T06:27:05;6.10;;;3.30;;
21677;SDS011;11000;50.360;7.582;2022-08-21T06:29:27;5.63;;;3.10;;
21677;SDS011;11000;50.360;7.582;2022-08-21T06:31:48;7.37;;;3.17;;
21677;SDS011;11000;50.360;7.582;2022-08-21T06:34:10;6.73;;;3.77;;
21677;SDS011;11000;50.360;7.582;2022-08-21T06:36:30;7.30;;;3.30;;
21677;SDS011;11000;50.360;7.582;2022-08-21T06:38:51;5.07;;;3.03;;
21677;SDS011;11000;50.360;7.582;2022-08-21T06:41:11;5.77;;;3.00;;
21677;SDS011;11000;50.360;7.582;2022-08-21T06:43:33;7.10;;;3.27;;
21677;SDS011;11000;50.360;7.582;2022-08-21T06:45:54;8.77;;;3.50;;
21677;SDS011;11000;50.360;7.582;2022-08-21T06:48:15;6.07;;;3.40;;
21677;SDS011;11000;50.360;7.582;2022-08-21T06:50:35;5.47;;;3.50;;
21677;SDS011;11000;50.360;7.582;2022-08-21T06:53:03;4.77;;;3.20;;
21677;SDS011;11000;50.360;7.582;2022-08-21T06:55:25;5.30;;;3.13;;
21677;SDS011;11000;50.360;7.582;2022-08-21T06:57:46;5.47;;;3.50;;
21677;SDS011;11000;50.360;7.582;2022-08-21T07:00:06;9.40;;;3.37;;
21677;SDS011;11000;50.360;7.582;2022-08-21T07:02:29;6.53;;;2.83;;
21677;SDS011;11000;50.360;7.582;2022-08-21T07:04:49;5.00;;;2.83;;
21677;SDS011;11000;50.360;7.582;2022-08-21T07:07:10;7.93;;;3.20;;
21677;SDS011;11000;50.360;7.582;2022-08-21T07:09:31;5.93;;;3.37;;
21677;SDS011;11000;50.360;7.582;2022-08-21T07:11:53;6.57;;;3.10;;
21677;SDS011;11000;50.360;7.582;2022-08-21T07:14:15;7.03;;;3.23;;
21677;SDS011;11000;50.360;7.582;2022-08-21T07:16:35;6.30;;;3.17;;
21677;SDS011;11000;50.360;7.582;2022-08-21T07:18:56;5.70;;;2.97;;
21677;SDS011;11000;50.360;7.582;2022-08-21T07:21:16;6.13;;;3.07;;
21677;SDS011;11000;50.360;7.582;2022-08-21T07:23:39;5.10;;;3.10;;
21677;SDS011;11000;50.360;7.582;2022-08-21T07:26:04;8.03;;;2.90;;
21677;SDS011;11000;50.360;7.582;2022-08-21T07:28:25;6.70;;;2.97;;
21677;SDS011;11000;50.360;7.582;2022-08-21T07:30:50;8.00;;;3.10;;
21677;SDS011;11000;50.360;7.582;2022-08-21T07:33:13;5.50;;;3.00;;
21677;SDS011;11000;50.360;7.582;2022-08-21T07:35:33;6.27;;;3.00;;
21677;SDS011;11000;50.360;7.582;2022-08-21T07:37:54;6.03;;;3.00;;
21677;SDS011;11000;50.360;7.582;2022-08-21T07:40:15;4.60;;;2.83;;
21677;SDS011;11000;50.360;7.582;2022-08-21T07:42:42;5.10;;;2.90;;
21677;SDS011;11000;50.360;7.582;2022-08-21T07:45:04;5.63;;;3.27;;
21677;SDS011;11000;50.360;7.582;2022-08-21T07:47:29;7.30;;;3.70;;
21677;SDS011;11000;50.360;7.582;2022-08-21T07:49:52;7.53;;;3.40;;
21677;SDS011;11000;50.360;7.582;2022-08-21T07:52:14;7.33;;;3.43;;
21677;SDS011;11000;50.360;7.582;2022-08-21T07:54:36;6.10;;;3.13;;
21677;SDS011;11000;50.360;7.582;2022-08-21T07:56:57;8.10;;;3.23;;
21677;SDS011;11000;50.360;7.582;2022-08-21T07:59:17;6.93;;;3.37;;
21677;SDS011;11000;50.360;7.582;2022-08-21T08:01:38;6.03;;;3.57;;
21677;SDS011;11000;50.360;7.582;2022-08-21T08:03:59;6.80;;;3.50;;
21677;SDS011;11000;50.360;7.582;2022-08-21T08:06:19;4.80;;;3.40;;
21677;SDS011;11000;50.360;7.582;2022-08-21T08:08:40;8.23;;;3.90;;
21677;SDS011;11000;50.360;7.582;2022-08-21T08:11:01;6.07;;;3.70;;
21677;SDS011;11000;50.360;7.582;2022-08-21T08:13:22;6.13;;;3.27;;
21677;SDS011;11000;50.360;7.582;2022-08-21T08:15:42;6.77;;;3.50;;
21677;SDS011;11000;50.360;7.582;2022-08-21T08:18:03;9.03;;;3.43;;
21677;SDS011;11000;50.360;7.582;2022-08-21T08:20:24;6.37;;;3.47;;
21677;SDS011;11000;50.360;7.582;2022-08-21T08:22:46;9.00;;;3.57;;
21677;SDS011;11000;50.360;7.582;2022-08-21T08:25:07;8.90;;;3.90;;
21677;SDS011;11000;50.360;7.582;2022-08-21T08:27:30;9.67;;;4.23;;
21677;SDS011;11000;50.360;7.582;2022-08-21T08:29:54;7.57;;;4.07;;
21677;SDS011;11000;50.360;7.582;2022-08-21T08:32:15;7.63;;;3.70;;
21677;SDS011;11000;50.360;7.582;2022-08-21T08:34:36;10.13;;;4.10;;
21677;SDS011;11000;50.360;7.582;2022-08-21T08:36:57;9.37;;;4.17;;
21677;SDS011;11000;50.360;7.582;2022-08-21T08:39:18;9.47;;;3.63;;
21677;SDS011;11000;50.360;7.582;2022-08-21T08:41:40;8.90;;;4.37;;
21677;SDS011;11000;50.360;7.582;2022-08-21T08:44:03;6.83;;;3.70;;
21677;SDS011;11000;50.360;7.582;2022-08-21T08:46:30;9.27;;;3.30;;
21677;SDS011;11000;50.360;7.582;2022-08-21T08:48:57;9.10;;;4.00;;
21677;SDS011;11000;50.360;7.582;2022-08-21T08:51:37;8.80;;;3.27;;
21677;SDS011;11000;50.360;7.582;2022-08-21T08:54:04;6.73;;;3.50;;
21677;SDS011;11000;50.360;7.582;2022-08-21T08:56:34;9.13;;;3.30;;
21677;SDS011;11000;50.360;7.582;2022-08-21T08:58:56;9.37;;;3.60;;
21677;SDS011;11000;50.360;7.582;2022-08-21T09:01:27;6.63;;;3.77;;
21677;SDS011;11000;50.360;7.582;2022-08-21T09:03:47;6.83;;;3.27;;
21677;SDS011;11000;50.360;7.582;2022-08-21T09:06:22;8.30;;;3.40;;
21677;SDS011;11000;50.360;7.582;2022-08-21T09:15:10;7.60;;;3.27;;
21677;SDS011;11000;50.360;7.582;2022-08-21T09:20:23;6.40;;;3.20;;
21677;SDS011;11000;50.360;7.582;2022-08-21T09:25:46;7.13;;;2.60;;
21677;SDS011;11000;50.360;7.582;2022-08-21T09:28:11;5.73;;;2.70;;
21677;SDS011;11000;50.360;7.582;2022-08-21T09:30:34;6.00;;;2.73;;
21677;SDS011;11000;50.360;7.582;2022-08-21T09:32:55;5.73;;;2.47;;
21677;SDS011;11000;50.360;7.582;2022-08-21T09:35:17;5.33;;;2.07;;
21677;SDS011;11000;50.360;7.582;2022-08-21T09:40:20;4.40;;;2.20;;
21677;SDS011;11000;50.360;7.582;2022-08-21T09:43:29;8.23;;;2.57;;
21677;SDS011;11000;50.360;7.582;2022-08-21T09:45:45;8.07;;;2.33;;
21677;SDS011;11000;50.360;7.582;2022-08-21T09:50:33;3.27;;;1.63;;
21677;SDS011;11000;50.360;7.582;2022-08-21T09:52:57;4.73;;;2.03;;
21677;SDS011;11000;50.360;7.582;2022-08-21T09:55:21;4.67;;;2.40;;
21677;SDS011;11000;50.360;7.582;2022-08-21T09:58:08;6.33;;;2.40;;
21677;SDS011;11000;50.360;7.582;2022-08-21T10:00:30;4.07;;;1.83;;
21677;SDS011;11000;50.360;7.582;2022-08-21T10:02:53;8.47;;;2.10;;
21677;SDS011;11000;50.360;7.582;2022-08-21T10:05:18;5.20;;;2.13;;
21677;SDS011;11000;50.360;7.582;2022-08-21T10:07:44;6.20;;;1.70;;
21677;SDS011;11000;50.360;7.582;2022-08-21T10:10:06;6.37;;;1.80;;
21677;SDS011;11000;50.360;7.582;2022-08-21T10:12:41;4.90;;;2.20;;
21677;SDS011;11000;50.360;7.582;2022-08-21T10:15:24;3.73;;;2.10;;
21677;SDS011;11000;50.360;7.582;2022-08-21T10:20:25;4.17;;;1.83;;
21677;SDS011;11000;50.360;7.582;2022-08-21T10:25:44;5.67;;;2.47;;
21677;SDS011;11000;50.360;7.582;2022-08-21T10:28:29;4.63;;;2.00;;
21677;SDS011;11000;50.360;7.582;2022-08-21T10:36:36;6.47;;;2.10;;
21677;SDS011;11000;50.360;7.582;2022-08-21T10:39:07;4.13;;;2.07;;
21677;SDS011;11000;50.360;7.582;2022-08-21T10:55:18;5.40;;;2.10;;
21677;SDS011;11000;50.360;7.582;2022-08-21T11:03:08;4.30;;;2.00;;
21677;SDS011;11000;50.360;7.582;2022-08-21T11:05:35;7.27;;;2.20;;
21677;SDS011;11000;50.360;7.582;2022-08-21T11:10:25;4.57;;;1.97;;
21677;SDS011;11000;50.360;7.582;2022-08-21T11:13:00;13.77;;;2.70;;
21677;SDS011;11000;50.360;7.582;2022-08-21T11:20:51;6.57;;;2.10;;
21677;SDS011;11000;50.360;7.582;2022-08-21T11:23:22;3.47;;;2.07;;
21677;SDS011;11000;50.360;7.582;2022-08-21T11:25:50;3.30;;;1.63;;
21677;SDS011;11000;50.360;7.582;2022-08-21T11:36:27;4.00;;;2.00;;
21677;SDS011;11000;50.360;7.582;2022-08-21T11:39:22;3.77;;;2.23;;
21677;SDS011;11000;50.360;7.582;2022-08-21T11:45:03;3.37;;;2.20;;
21677;SDS011;11000;50.360;7.582;2022-08-21T11:50:13;5.13;;;2.00;;
21677;SDS011;11000;50.360;7.582;2022-08-21T11:52:38;5.03;;;1.77;;
21677;SDS011;11000;50.360;7.582;2022-08-21T11:55:15;5.23;;;2.40;;
21677;SDS011;11000;50.360;7.582;2022-08-21T11:57:46;4.47;;;2.07;;
21677;SDS011;11000;50.360;7.582;2022-08-21T12:02:58;5.73;;;2.20;;
21677;SDS011;11000;50.360;7.582;2022-08-21T12:05:33;3.83;;;1.90;;
21677;SDS011;11000;50.360;7.582;2022-08-21T12:08:12;6.03;;;2.20;;
21677;SDS011;11000;50.360;7.582;2022-08-21T12:10:47;4.67;;;2.03;;
21677;SDS011;11000;50.360;7.582;2022-08-21T12:13:26;4.80;;;1.70;;
21677;SDS011;11000;50.360;7.582;2022-08-21T12:15:50;4.23;;;2.10;;
21677;SDS011;11000;50.360;7.582;2022-08-21T12:18:21;6.73;;;1.80;;
21677;SDS011;11000;50.360;7.582;2022-08-21T12:20:58;5.27;;;1.70;;
21677;SDS011;11000;50.360;7.582;2022-08-21T12:26:26;4.00;;;2.13;;
21677;SDS011;11000;50.360;7.582;2022-08-21T12:29:12;3.53;;;2.00;;
21677;SDS011;11000;50.360;7.582;2022-08-21T12:31:36;4.63;;;2.43;;
21677;SDS011;11000;50.360;7.582;2022-08-21T12:34:12;3.33;;;2.00;;
21677;SDS011;11000;50.360;7.582;2022-08-21T12:36:39;4.77;;;2.40;;
21677;SDS011;11000;50.360;7.582;2022-08-21T12:39:11;2.20;;;1.67;;
21677;SDS011;11000;50.360;7.582;2022-08-21T12:45:14;7.63;;;1.80;;
21677;SDS011;11000;50.360;7.582;2022-08-21T12:49:54;3.73;;;2.00;;
21677;SDS011;11000;50.360;7.582;2022-08-21T12:52:23;3.40;;;1.90;;
21677;SDS011;11000;50.360;7.582;2022-08-21T12:54:48;4.60;;;1.93;;
21677;SDS011;11000;50.360;7.582;2022-08-21T12:57:17;6.60;;;1.70;;
21677;SDS011;11000;50.360;7.582;2022-08-21T12:59:40;7.07;;;2.13;;
21677;SDS011;11000;50.360;7.582;2022-08-21T13:02:01;5.10;;;2.00;;
21677;SDS011;11000;50.360;7.582;2022-08-21T13:04:35;6.00;;;1.70;;
21677;SDS011;11000;50.360;7.582;2022-08-21T13:06:59;7.13;;;2.03;;
21677;SDS011;11000;50.360;7.582;2022-08-21T13:09:24;7.33;;;2.30;;
21677;SDS011;11000;50.360;7.582;2022-08-21T13:11:48;5.97;;;2.37;;
21677;SDS011;11000;50.360;7.582;2022-08-21T13:14:14;3.10;;;1.77;;
21677;SDS011;11000;50.360;7.582;2022-08-21T13:16:55;6.60;;;2.23;;
21677;SDS011;11000;50.360;7.582;2022-08-21T13:19:17;4.23;;;2.00;;
21677;SDS011;11000;50.360;7.582;2022-08-21T13:21:41;5.13;;;2.00;;
21677;SDS011;11000;50.360;7.582;2022-08-21T13:24:08;4.67;;;1.80;;
21677;SDS011;11000;50.360;7.582;2022-08-21T13:26:34;4.13;;;1.97;;
21677;SDS011;11000;50.360;7.582;2022-08-21T13:28:54;4.27;;;1.67;;
21677;SDS011;11000;50.360;7.582;2022-08-21T13:31:29;3.30;;;1.53;;
21677;SDS011;11000;50.360;7.582;2022-08-21T13:33:51;3.77;;;1.93;;
21677;SDS011;11000;50.360;7.582;2022-08-21T13:36:17;5.70;;;2.00;;
21677;SDS011;11000;50.360;7.582;2022-08-21T13:38:41;4.83;;;1.73;;
21677;SDS011;11000;50.360;7.582;2022-08-21T13:43:34;3.23;;;1.53;;
21677;SDS011;11000;50.360;7.582;2022-08-21T13:45:56;2.67;;;1.50;;
21677;SDS011;11000;50.360;7.582;2022-08-21T13:48:18;5.70;;;2.00;;
21677;SDS011;11000;50.360;7.582;2022-08-21T13:50:40;4.47;;;1.90;;
21677;SDS011;11000;50.360;7.582;2022-08-21T13:53:04;4.23;;;1.90;;
21677;SDS011;11000;50.360;7.582;2022-08-21T13:55:33;4.53;;;1.80;;
21677;SDS011;11000;50.360;7.582;2022-08-21T13:58:03;6.00;;;1.67;;
21677;SDS011;11000;50.360;7.582;2022-08-21T14:00:29;3.60;;;1.90;;
21677;SDS011;11000;50.360;7.582;2022-08-21T14:02:52;4.10;;;1.70;;
21677;SDS011;11000;50.360;7.582;2022-08-21T14:05:22;3.77;;;1.93;;
21677;SDS011;11000;50.360;7.582;2022-08-21T14:07:49;6.47;;;2.00;;
21677;SDS011;11000;50.360;7.582;2022-08-21T14:10:16;3.90;;;1.57;;
21677;SDS011;11000;50.360;7.582;2022-08-21T14:12:43;4.03;;;1.80;;
21677;SDS011;11000;50.360;7.582;2022-08-21T14:15:04;6.73;;;1.80;;
21677;SDS011;11000;50.360;7.582;2022-08-21T14:17:27;4.60;;;1.47;;
21677;SDS011;11000;50.360;7.582;2022-08-21T14:19:53;3.53;;;1.73;;
21677;SDS011;11000;50.360;7.582;2022-08-21T14:30:36;3.27;;;1.50;;
21677;SDS011;11000;50.360;7.582;2022-08-21T14:33:01;4.20;;;1.73;;
21677;SDS011;11000;50.360;7.582;2022-08-21T14:35:23;6.97;;;1.80;;
21677;SDS011;11000;50.360;7.582;2022-08-21T14:37:44;3.60;;;1.70;;
21677;SDS011;11000;50.360;7.582;2022-08-21T14:40:05;3.47;;;1.90;;
21677;SDS011;11000;50.360;7.582;2022-08-21T14:42:27;3.30;;;1.70;;
21677;SDS011;11000;50.360;7.582;2022-08-21T14:44:48;5.30;;;2.13;;
21677;SDS011;11000;50.360;7.582;2022-08-21T14:47:10;3.40;;;1.67;;
21677;SDS011;11000;50.360;7.582;2022-08-21T14:49:31;3.97;;;1.70;;
21677;SDS011;11000;50.360;7.582;2022-08-21T14:51:52;3.33;;;1.40;;
21677;SDS011;11000;50.360;7.582;2022-08-21T14:54:17;3.27;;;1.60;;
21677;SDS011;11000;50.360;7.582;2022-08-21T14:56:38;3.40;;;1.53;;
21677;SDS011;11000;50.360;7.582;2022-08-21T14:59:01;7.17;;;1.63;;
21677;SDS011;11000;50.360;7.582;2022-08-21T15:01:24;5.30;;;1.70;;
21677;SDS011;11000;50.360;7.582;2022-08-21T15:03:45;3.37;;;1.60;;
21677;SDS011;11000;50.360;7.582;2022-08-21T15:06:08;1.77;;;1.60;;
21677;SDS011;11000;50.360;7.582;2022-08-21T15:08:30;3.37;;;1.50;;
21677;SDS011;11000;50.360;7.582;2022-08-21T15:10:52;5.47;;;1.80;;
21677;SDS011;11000;50.360;7.582;2022-08-21T15:13:13;3.50;;;1.70;;
21677;SDS011;11000;50.360;7.582;2022-08-21T15:15:39;5.13;;;1.70;;
21677;SDS011;11000;50.360;7.582;2022-08-21T15:18:02;5.37;;;1.80;;
21677;SDS011;11000;50.360;7.582;2022-08-21T15:20:22;3.03;;;1.73;;
21677;SDS011;11000;50.360;7.582;2022-08-21T15:22:44;3.00;;;1.90;;
21677;SDS011;11000;50.360;7.582;2022-08-21T15:25:07;2.50;;;1.40;;
21677;SDS011;11000;50.360;7.582;2022-08-21T15:27:28;3.80;;;1.60;;
21677;SDS011;11000;50.360;7.582;2022-08-21T15:29:49;4.53;;;1.40;;
21677;SDS011;11000;50.360;7.582;2022-08-21T15:32:29;4.83;;;1.70;;
21677;SDS011;11000;50.360;7.582;2022-08-21T15:34:52;4.77;;;2.03;;
21677;SDS011;11000;50.360;7.582;2022-08-21T15:37:13;4.30;;;2.20;;
21677;SDS011;11000;50.360;7.582;2022-08-21T15:39:39;6.43;;;2.07;;
21677;SDS011;11000;50.360;7.582;2022-08-21T15:42:01;4.77;;;1.83;;
21677;SDS011;11000;50.360;7.582;2022-08-21T15:44:23;4.97;;;1.80;;
21677;SDS011;11000;50.360;7.582;2022-08-21T15:46:46;2.73;;;1.77;;
21677;SDS011;11000;50.360;7.582;2022-08-21T15:49:08;3.63;;;1.67;;
21677;SDS011;11000;50.360;7.582;2022-08-21T15:51:29;3.30;;;1.60;;
21677;SDS011;11000;50.360;7.582;2022-08-21T15:53:50;2.77;;;1.83;;
21677;SDS011;11000;50.360;7.582;2022-08-21T15:56:17;2.80;;;1.60;;
21677;SDS011;11000;50.360;7.582;2022-08-21T15:58:44;2.70;;;1.47;;
21677;SDS011;11000;50.360;7.582;2022-08-21T16:01:06;2.83;;;1.70;;
21677;SDS011;11000;50.360;7.582;2022-08-21T16:03:27;3.97;;;1.73;;